Time;durP1;ratioP1;P1;durP2;ratioP2;P2;SDS_P1;SDS_P2;PMS_P1;PMS_P2;Temp;Humidity;BMP_temperature;BMP_pressure;BME280_temperature;BME280_humidity;BME280_pressure;Samples;Min_cycle;Max_cycle;Signal;HPM_P1;HPM_P2
2022/10/12 00:03:07;;;;;;;14.18;7.40;;;;;;;4.17;100.00;102410.03;12886944;22;20019;-85
2022/10/12 00:08:07;;;;;;;14.70;7.13;;;;;;;3.88;100.00;102344.38;12893297;22;20030;-86
2022/10/12 00:13:09;;;;;;;12.18;7.72;;;;;;;4.53;100.00;102472.31;12888803;22;20007;-86
2022/10/12 00:18:09;;;;;;;9.40;7.00;;;;;;;3.69;100.00;102361.94;12890060;22;20003;-86
2022/10/12 00:23:10;;;;;;;13.38;6.95;;;;;;;5.08;100.00;102544.25;12893909;22;20079;-86
2022/10/12 00:28:10;;;;;;;10.15;7.03;;;;;;;3.86;100.00;102335.50;12920092;22;20104;-86
2022/10/12 00:33:11;;;;;;;8.43;6.65;;;;;;;4.21;100.00;102392.28;12895344;22;20030;-86
2022/10/12 00:38:11;;;;;;;8.20;5.72;;;;;;;4.39;100.00;102418.50;12918810;22;20056;-85
2022/10/12 00:43:27;;;;;;;8.48;5.78;;;;;;;3.77;100.00;102349.16;12893899;22;20327;-86
2022/10/12 00:48:28;;;;;;;9.90;6.28;;;;;;;3.98;100.00;102355.91;12918972;22;20339;-86
2022/10/12 00:53:31;;;;;;;8.68;5.68;;;;;;;4.13;100.00;102430.47;12916429;22;20371;-86
2022/10/12 00:58:32;;;;;;;6.32;5.13;;;;;;;3.57;100.00;102277.00;12944899;22;20373;-86
2022/10/12 01:03:32;;;;;;;9.18;6.47;;;;;;;4.78;100.00;102492.19;12893857;22;20024;-85
2022/10/12 01:08:33;;;;;;;11.60;8.10;;;;;;;5.13;100.00;102557.41;12889010;22;20024;-85
2022/10/12 01:13:33;;;;;;;10.52;7.82;;;;;;;4.52;100.00;102440.59;12891909;22;20126;-85
2022/10/12 01:18:43;;;;;;;10.82;7.97;;;;;;;4.35;100.00;102398.06;12893481;22;20022;-86
2022/10/12 01:24:28;;;;;;;13.18;8.65;;;;;;;5.34;100.00;102565.81;12893735;22;20039;-85
2022/10/12 01:29:29;;;;;;;14.38;9.00;;;;;;;5.36;100.00;102569.22;12628907;23;20006;-85
2022/10/12 01:34:45;;;;;;;17.27;9.30;;;;;;;4.64;100.00;102474.66;12897896;22;20415;-85
2022/10/12 01:39:51;;;;;;;16.98;10.10;;;;;;;4.28;100.00;102457.03;12919801;22;20341;-86
2022/10/12 01:45:12;;;;;;;13.30;8.75;;;;;;;4.69;100.00;102504.13;12895894;22;20019;-86
2022/10/12 01:50:13;;;;;;;15.25;8.32;;;;;;;4.49;100.00;102462.78;12895837;22;20461;-86
2022/10/12 01:55:37;;;;;;;15.90;10.07;;;;;;;5.08;100.00;102557.06;12892328;22;20000;-86
2022/10/12 02:00:42;;;;;;;16.30;8.63;;;;;;;4.76;100.00;102512.50;12917172;22;20373;-86
2022/10/12 02:05:48;;;;;;;16.08;9.15;;;;;;;4.92;100.00;102545.19;12917784;22;20437;-86
2022/10/12 02:11:15;;;;;;;14.35;9.38;;;;;;;4.17;100.00;102420.94;12917808;22;20004;-86
2022/10/12 02:16:17;;;;;;;17.60;9.48;;;;;;;3.53;100.00;102335.56;12909975;22;20066;-85
2022/10/12 02:21:20;;;;;;;15.65;8.80;;;;;;;4.13;100.00;102451.44;12891432;22;20389;-86
2022/10/12 02:26:20;;;;;;;14.48;8.75;;;;;;;4.15;100.00;102454.84;12916138;22;19996;-86
2022/10/12 02:31:30;;;;;;;14.18;8.70;;;;;;;4.69;100.00;102506.88;12897006;22;20090;-85
2022/10/12 02:36:38;;;;;;;12.45;7.88;;;;;;;3.32;100.00;102339.66;12919868;22;20008;-85
2022/10/12 02:41:54;;;;;;;16.80;9.30;;;;;;;3.43;100.00;102333.88;12921176;22;20043;-85
2022/10/12 02:46:54;;;;;;;22.63;10.25;;;;;;;3.62;100.00;102329.09;12895925;22;20008;-85
2022/10/12 02:51:55;;;;;;;16.98;8.85;;;;;;;3.82;100.00;102368.56;12894231;22;20011;-85
2022/10/12 02:56:55;;;;;;;25.63;10.95;;;;;;;3.91;100.00;102365.81;12921388;22;20028;-86
2022/10/12 03:01:56;;;;;;;22.73;10.98;;;;;;;4.44;100.00;102432.44;12879892;22;20051;-85
2022/10/12 03:06:57;;;;;;;14.80;10.23;;;;;;;3.74;100.00;102284.13;12895647;22;20442;-86
2022/10/12 03:11:57;;;;;;;18.48;9.73;;;;;;;3.77;100.00;102286.50;12896768;22;20008;-86
2022/10/12 03:16:58;;;;;;;20.63;11.00;;;;;;;3.71;100.00;102311.72;12895446;22;20003;-86
2022/10/12 03:21:58;;;;;;;17.08;10.43;;;;;;;3.92;100.00;102329.38;12893632;22;20019;-86
2022/10/12 03:26:59;;;;;;;19.50;11.07;;;;;;;3.76;100.00;102320.22;12921643;22;20053;-86
2022/10/12 03:31:59;;;;;;;17.20;9.63;;;;;;;3.74;100.00;102314.09;12896254;22;20474;-86
2022/10/12 03:37:00;;;;;;;16.00;10.48;;;;;;;2.85;100.00;102155.34;12895687;22;20329;-86
2022/10/12 03:42:00;;;;;;;19.65;11.07;;;;;;;3.82;100.00;102319.53;12895412;22;20019;-86
2022/10/12 03:47:01;;;;;;;18.38;10.02;;;;;;;3.24;100.00;102249.84;12894888;22;20008;-86
2022/10/12 03:52:02;;;;;;;18.30;10.60;;;;;;;4.19;100.00;102429.78;12920044;22;20007;-86
2022/10/12 03:57:02;;;;;;;19.67;11.13;;;;;;;4.15;100.00;102424.88;12920686;22;20000;-86
2022/10/12 04:02:03;;;;;;;22.23;11.65;;;;;;;4.44;100.00;102448.81;12921806;22;20964;-86
2022/10/12 04:07:03;;;;;;;26.67;12.93;;;;;;;4.17;100.00;102387.38;12881988;22;20008;-86
2022/10/12 04:12:04;;;;;;;21.02;12.38;;;;;;;3.44;100.00;102288.44;12894470;22;20004;-85
2022/10/12 04:17:04;;;;;;;27.17;13.90;;;;;;;2.74;100.00;102166.56;12865938;22;20010;-85
2022/10/12 04:22:05;;;;;;;20.77;12.63;;;;;;;3.51;100.00;102283.16;12852897;22;20023;-86
2022/10/12 04:27:18;;;;;;;25.83;14.23;;;;;;;3.21;100.00;102261.09;12869448;22;20008;-85
2022/10/12 04:32:25;;;;;;;27.58;14.70;;;;;;;4.20;100.00;102382.44;12846503;22;20008;-86
2022/10/12 04:37:26;;;;;;;27.27;16.00;;;;;;;2.72;100.00;102146.88;12830759;22;20052;-85
2022/10/12 04:42:27;;;;;;;26.63;15.18;;;;;;;3.69;100.00;102308.31;12798168;22;20069;-85
2022/10/12 04:47:31;;;;;;;29.65;16.05;;;;;;;4.54;100.00;102433.09;12816210;22;20024;-85
2022/10/12 04:52:32;;;;;;;31.83;17.15;;;;;;;4.25;100.00;102374.56;12805928;22;20168;-86
2022/10/12 04:57:33;;;;;;;32.53;18.65;;;;;;;4.19;100.00;102358.91;12763548;22;20426;-85
2022/10/12 05:02:34;;;;;;;33.30;17.10;;;;;;;3.42;100.00;102236.88;12783365;22;20020;-85
2022/10/12 05:07:34;;;;;;;32.70;16.45;;;;;;;3.14;100.00;102186.59;12776020;22;20066;-85
2022/10/12 05:12:41;;;;;;;29.08;17.27;;;;;;;4.47;100.00;102437.56;12833215;22;20023;-85
2022/10/12 05:17:42;;;;;;;29.10;17.92;;;;;;;3.26;100.00;102223.31;12774214;22;20043;-85
2022/10/12 05:22:42;;;;;;;33.45;17.60;;;;;;;4.43;100.00;102377.06;12830836;22;20012;-85
2022/10/12 05:27:43;;;;;;;29.20;16.17;;;;;;;4.44;100.00;102397.00;12854830;22;20038;-85
2022/10/12 05:32:47;;;;;;;28.33;16.92;;;;;;;3.99;100.00;102308.56;12857652;22;20499;-86
2022/10/12 05:37:48;;;;;;;29.63;17.20;;;;;;;4.96;100.00;102451.00;12868815;22;20341;-86
2022/10/12 05:42:48;;;;;;;30.52;17.83;;;;;;;5.05;100.00;102529.09;12818522;22;20027;-85
2022/10/12 05:47:49;;;;;;;38.60;18.15;;;;;;;4.33;100.00;102384.59;12818335;22;20039;-85
2022/10/12 05:52:49;;;;;;;31.17;16.70;;;;;;;3.29;100.00;102232.97;12891067;22;20006;-87
2022/10/12 05:57:50;;;;;;;29.15;17.65;;;;;;;3.06;100.00;102189.31;12892970;22;20016;-87
2022/10/12 06:02:55;;;;;;;34.30;17.15;;;;;;;3.95;100.00;102312.66;12880081;22;20027;-87
2022/10/12 06:08:00;;;;;;;26.50;16.25;;;;;;;3.46;100.00;102242.00;12873065;22;20019;-86
2022/10/12 06:13:03;;;;;;;38.05;17.67;;;;;;;3.97;100.00;102376.00;12913458;22;20008;-87
2022/10/12 06:18:06;;;;;;;30.98;17.13;;;;;;;3.28;100.00;102228.59;12784919;22;20012;-86
2022/10/12 06:23:10;;;;;;;28.75;18.13;;;;;;;3.43;100.00;102276.72;12863518;22;20015;-86
2022/10/12 06:28:10;;;;;;;34.63;17.40;;;;;;;3.90;100.00;102373.13;12817201;22;20003;-86
2022/10/12 06:33:16;;;;;;;31.15;17.73;;;;;;;2.83;100.00;102198.16;12902099;22;20011;-87
2022/10/12 06:38:21;;;;;;;39.22;17.05;;;;;;;3.65;100.00;102317.84;12878510;22;20008;-87
2022/10/12 06:43:23;;;;;;;30.48;15.90;;;;;;;4.02;100.00;102351.81;12760569;22;20450;-87
2022/10/12 06:48:26;;;;;;;34.33;17.40;;;;;;;3.06;100.00;102213.81;12802310;22;20004;-87
2022/10/12 06:53:29;;;;;;;30.45;15.95;;;;;;;4.34;100.00;102416.31;12868822;22;20014;-88
2022/10/12 06:58:30;;;;;;;28.73;16.90;;;;;;;3.56;100.00;102232.59;12836362;22;20008;-87
2022/10/12 07:03:31;;;;;;;31.02;16.55;;;;;;;3.71;100.00;102270.84;12873953;22;20027;-87
2022/10/12 07:08:37;;;;;;;27.67;15.93;;;;;;;3.41;100.00;102218.88;12815623;22;20099;-88
2022/10/12 07:14:06;;;;;;;29.88;16.45;;;;;;;5.22;100.00;102458.03;12704800;22;20017;-90
2022/10/12 07:19:06;;;;;;;27.85;15.57;;;;;;;3.93;100.00;102279.31;12708286;22;20029;-85
2022/10/12 07:24:10;;;;;;;28.20;16.90;;;;;;;5.46;100.00;102459.75;12892829;22;20000;-85
2022/10/12 07:29:11;;;;;;;29.88;16.85;;;;;;;4.17;100.00;102279.19;12943405;22;20000;-86
2022/10/12 07:34:11;;;;;;;37.00;16.38;;;;;;;4.16;100.00;102225.72;12895134;22;20004;-85
2022/10/12 07:39:12;;;;;;;31.55;15.50;;;;;;;4.88;100.00;102341.88;12892673;22;20016;-85
2022/10/12 07:44:12;;;;;;;33.40;14.60;;;;;;;5.24;100.00;102357.66;12918961;22;20004;-85
2022/10/12 07:49:14;;;;;;;34.00;15.95;;;;;;;6.00;100.00;102483.44;12894130;22;20002;-85
2022/10/12 07:54:14;;;;;;;30.35;14.70;;;;;;;4.76;100.00;102205.03;12920021;22;20038;-85
2022/10/12 07:59:15;;;;;;;24.75;15.80;;;;;;;6.54;100.00;102475.03;12892341;22;20446;-85
2022/10/12 08:04:16;;;;;;;29.10;13.23;;;;;;;6.12;100.00;102399.94;12944563;22;20014;-86
2022/10/12 08:09:16;;;;;;;27.17;13.23;;;;;;;6.11;100.00;102337.22;12873146;22;20027;-86
2022/10/12 08:14:17;;;;;;;22.08;11.25;;;;;;;6.74;100.00;102420.56;12878301;22;20122;-86
2022/10/12 08:19:17;;;;;;;21.95;11.98;;;;;;;5.65;100.00;102193.38;12915454;22;20015;-86
2022/10/12 08:24:18;;;;;;;34.72;11.73;;;;;;;6.82;100.00;102348.41;12902624;22;20051;-85
2022/10/12 08:29:19;;;;;;;16.70;8.38;;;;;;;6.61;100.00;102240.59;12899148;22;20000;-85
2022/10/12 08:34:19;;;;;;;26.23;8.90;;;;;;;6.75;100.00;102240.75;12941726;22;20007;-86
2022/10/12 08:39:20;;;;;;;15.43;9.07;;;;;;;7.15;100.00;102313.19;12943222;22;20016;-85
2022/10/12 08:44:36;;;;;;;22.67;9.18;;;;;;;8.27;100.00;102437.66;12917199;22;20304;-86
2022/10/12 08:49:39;;;;;;;21.75;8.00;;;;;;;6.72;100.00;102186.41;12914664;22;20014;-86
2022/10/12 08:54:42;;;;;;;19.45;8.43;;;;;;;7.19;100.00;102215.03;12892762;22;20087;-86
2022/10/12 08:59:43;;;;;;;17.40;7.93;;;;;;;6.63;100.00;102117.28;12915053;22;20326;-85
2022/10/12 09:04:57;;;;;;;22.80;8.30;;;;;;;8.22;100.00;102346.88;12916206;22;20443;-85
2022/10/12 09:10:25;;;;;;;15.68;6.85;;;;;;;9.39;100.00;102420.00;12918672;22;20015;-85
2022/10/12 09:15:38;;;;;;;14.38;6.25;;;;;;;9.32;100.00;102353.16;12941849;22;20006;-86
2022/10/12 09:20:49;;;;;;;11.30;5.57;;;;;;;8.98;100.00;102236.91;12892136;22;20055;-86
2022/10/12 09:25:50;;;;;;;13.85;4.15;;;;;;;8.80;100.00;102151.53;12845639;22;20015;-86
2022/10/12 09:31:09;;;;;;;10.60;4.03;;;;;;;11.30;100.00;102410.72;12914292;22;20011;-87
2022/10/12 09:36:09;;;;;;;16.25;4.35;;;;;;;11.20;100.00;102324.06;12927181;22;20091;-86
2022/10/12 09:41:24;;;;;;;9.98;3.65;;;;;;;10.77;100.00;102190.63;12915367;22;20023;-88
2022/10/12 09:46:42;;;;;;;10.52;2.95;;;;;;;11.36;100.00;102262.00;12892899;22;20303;-88
2022/10/12 09:51:44;;;;;;;17.08;3.97;;;;;;;11.30;100.00;102214.97;12916137;22;20075;-88
2022/10/12 09:56:51;;;;;;;9.70;2.83;;;;;;;10.94;100.00;102126.69;12877247;22;20008;-87
2022/10/12 10:01:58;;;;;;;13.43;3.30;;;;;;;12.63;100.00;102383.00;12919810;22;20031;-86
2022/10/12 10:07:33;;;;;;;12.73;3.50;;;;;;;12.03;100.00;102320.16;12943956;22;20369;-85
2022/10/12 10:12:36;;;;;;;15.23;2.80;;;;;;;10.89;100.00;102149.41;12919482;22;20027;-86
2022/10/12 10:17:37;;;;;;;15.15;2.97;;;;;;;11.98;100.00;102333.81;12943914;22;20101;-85
2022/10/12 10:22:46;;;;;;;11.55;2.95;;;;;;;12.38;100.00;102378.41;12891916;22;20149;-85
2022/10/12 10:27:46;;;;;;;19.30;3.20;;;;;;;12.21;100.00;102240.09;12918910;22;20339;-85
2022/10/12 10:32:47;;;;;;;10.88;3.40;;;;;;;12.54;100.00;102233.28;12909805;22;20004;-84
2022/10/12 10:37:50;;;;;;;17.58;3.85;;;;;;;13.42;100.00;102344.28;12887729;22;20000;-85
2022/10/12 10:42:53;;;;;;;9.73;4.07;;;;;;;13.07;100.00;102249.06;12912084;22;20069;-87
2022/10/12 10:48:00;;;;;;;10.60;3.13;;;;;;;13.78;100.00;102287.03;12888580;22;20026;-85
2022/10/12 10:53:03;;;;;;;14.15;2.70;;;;;;;13.04;100.00;102116.84;12893216;22;20003;-85
2022/10/12 10:58:05;;;;;;;10.45;2.53;;;;;;;14.23;100.00;102284.44;12892261;22;20004;-85
2022/10/12 11:03:28;;;;;;;11.43;2.45;;;;;;;13.92;100.00;102200.72;12891055;22;20043;-87
2022/10/12 11:08:29;;;;;;;12.18;2.70;;;;;;;14.00;100.00;102157.13;12941237;22;20007;-85
2022/10/12 11:13:37;;;;;;;7.88;2.03;;;;;;;15.51;100.00;102295.16;12916113;22;20030;-85
2022/10/12 11:18:45;;;;;;;8.90;2.30;;;;;;;15.45;100.00;102285.06;12916541;22;20005;-85
2022/10/12 11:24:18;;;;;;;9.25;1.95;;;;;;;15.01;100.00;102212.78;12941402;22;20445;-87
2022/10/12 11:29:18;;;;;;;10.13;1.77;;;;;;;14.45;100.00;102117.50;12932793;22;20008;-86
2022/10/12 11:34:20;;;;;;;8.68;1.90;;;;;;;15.09;100.00;102148.56;12914571;22;20000;-85
2022/10/12 11:39:29;;;;;;;9.05;1.88;;;;;;;16.07;100.00;102274.91;12915378;22;20090;-86
2022/10/12 11:44:43;;;;;;;8.25;2.33;;;;;;;15.18;100.00;102087.13;12891739;22;20000;-85
2022/10/12 11:50:03;;;;;;;8.52;1.40;;;;;;;15.82;100.00;102190.16;12891769;22;20122;-88
2022/10/12 11:55:35;;;;;;;7.65;2.20;;;;;;;16.77;99.04;102239.88;12920120;22;20008;-86
2022/10/12 12:00:54;;;;;;;5.82;1.40;;;;;;;16.80;94.87;102132.81;12914613;22;20016;-85
2022/10/12 12:05:55;;;;;;;8.70;1.85;;;;;;;17.51;91.63;102144.47;12918925;22;20015;-86
2022/10/12 12:11:04;;;;;;;8.20;1.83;;;;;;;18.10;87.51;102123.81;12888441;22;20334;-86
2022/10/12 12:16:20;;;;;;;6.43;1.70;;;;;;;18.46;83.54;102123.06;12889399;22;20000;-86
2022/10/12 12:21:20;;;;;;;10.00;2.00;;;;;;;18.42;79.90;102068.97;12915012;22;20012;-87
2022/10/12 12:26:25;;;;;;;7.22;2.05;;;;;;;19.21;78.71;102119.72;12857849;22;20022;-89
2022/10/12 12:31:26;;;;;;;10.27;2.35;;;;;;;18.95;76.16;102045.25;12900182;22;20008;-93
2022/10/12 12:36:35;;;;;;;6.90;1.50;;;;;;;19.52;73.91;102070.19;12863890;22;20031;-91
2022/10/12 12:41:59;;;;;;;8.55;1.90;;;;;;;19.03;71.88;101931.34;12854938;22;20113;-89
2022/10/12 12:46:59;;;;;;;7.80;1.85;;;;;;;20.18;71.91;102029.88;12844240;22;19996;-90
2022/10/12 12:52:00;;;;;;;5.90;2.00;;;;;;;19.48;67.16;101907.09;12924431;22;20026;-90
2022/10/12 12:57:16;;;;;;;8.77;1.75;;;;;;;20.95;68.89;102135.56;12871958;22;20015;-89
2022/10/12 13:02:20;;;;;;;6.85;1.90;;;;;;;21.07;65.00;102102.41;12877536;22;20026;-90
2022/10/12 13:07:26;;;;;;;6.60;2.08;;;;;;;21.08;64.70;102106.84;12937147;22;20027;-89
2022/10/12 13:12:55;;;;;;;5.53;2.15;;;;;;;21.07;66.74;102000.78;12964091;22;20004;-87
2022/10/12 13:18:05;;;;;;;11.95;2.50;;;;;;;21.16;66.84;102011.00;12896708;22;20023;-87
2022/10/12 13:23:07;;;;;;;8.40;2.55;;;;;;;21.46;65.49;102006.19;12922413;22;20020;-86
2022/10/12 13:28:15;;;;;;;9.77;2.53;;;;;;;20.50;62.86;101841.03;12886662;22;20028;-86
2022/10/12 13:33:29;;;;;;;6.57;1.80;;;;;;;21.66;64.20;102004.22;12887954;22;20007;-86
2022/10/12 13:38:30;;;;;;;5.70;2.28;;;;;;;21.10;63.20;101900.19;12887127;22;20051;-86
2022/10/12 13:44:03;;;;;;;9.90;2.88;;;;;;;21.86;63.61;101986.28;12911923;22;20320;-86
2022/10/12 13:49:23;;;;;;;14.70;2.88;;;;;;;20.78;63.17;101894.47;12814024;22;20008;-87
2022/10/12 13:54:56;;;;;;;11.77;2.30;;;;;;;20.35;61.17;101837.28;12939433;22;20026;-86
2022/10/12 14:00:03;;;;;;;9.73;2.40;;;;;;;20.67;63.96;101838.66;12887226;22;20361;-87
2022/10/12 14:05:05;;;;;;;;;;;;;;;21.86;63.76;102031.13;12886420;22;20511;-87
2022/10/12 14:10:07;;;;;;;12.63;2.67;;;;;;;21.25;62.37;101875.91;12938196;22;19906;-87
2022/10/12 14:15:09;;;;;;;10.02;2.70;;;;;;;21.92;61.53;101963.47;12885668;22;19996;-87
2022/10/12 14:20:37;;;;;;;13.13;2.75;;;;;;;21.40;60.13;101878.50;12885194;22;20023;-90
2022/10/12 14:25:41;;;;;;;7.63;2.08;;;;;;;21.70;61.05;101963.25;12919549;22;20018;-87
2022/10/12 14:30:49;;;;;;;8.57;2.60;;;;;;;21.01;58.81;101865.59;12891535;22;20010;-86
2022/10/12 14:35:50;;;;;;;8.20;2.28;;;;;;;20.62;60.10;101824.69;12856358;22;20016;-86
2022/10/12 14:40:51;;;;;;;9.88;2.72;;;;;;;20.33;61.86;101861.09;12890257;22;20089;-87
2022/10/12 14:45:51;;;;;;;6.75;2.83;;;;;;;19.14;64.50;101933.81;12864544;22;20012;-88
2022/10/12 14:50:52;;;;;;;13.30;2.65;;;;;;;17.96;67.41;101949.94;12889986;22;20083;-90
2022/10/12 14:55:55;;;;;;;6.45;2.30;;;;;;;16.45;71.56;101859.84;12890406;22;20023;-89
2022/10/12 15:00:55;;;;;;;6.05;2.20;;;;;;;15.85;76.95;101914.72;12914658;22;20100;-89
2022/10/12 15:05:56;;;;;;;12.68;3.03;;;;;;;15.66;80.37;101975.31;12890551;22;20096;-91
2022/10/12 15:10:56;;;;;;;8.30;2.35;;;;;;;15.07;85.09;101951.06;12891048;22;20122;-87
2022/10/12 15:15:59;;;;;;;10.18;3.35;;;;;;;15.02;89.28;102027.81;12917060;22;20004;-88
2022/10/12 15:20:59;;;;;;;12.88;2.40;;;;;;;14.39;91.53;102010.50;12903858;22;20022;-87
2022/10/12 15:26:00;;;;;;;14.15;2.55;;;;;;;13.84;97.26;101948.38;12892419;22;20019;-87
2022/10/12 15:31:01;;;;;;;14.85;2.80;;;;;;;13.58;100.00;101958.97;12891125;22;20006;-87
2022/10/12 15:36:02;;;;;;;8.32;2.30;;;;;;;12.22;100.00;101780.72;12891603;22;20008;-88
2022/10/12 15:41:02;;;;;;;10.50;2.58;;;;;;;14.06;100.00;102067.53;12900345;22;20019;-87
2022/10/12 15:46:03;;;;;;;9.15;2.40;;;;;;;12.56;100.00;101894.09;12892658;22;20000;-88
2022/10/12 15:51:12;;;;;;;16.10;3.13;;;;;;;12.49;100.00;101918.28;12890005;22;20079;-88
2022/10/12 15:56:13;;;;;;;7.53;2.30;;;;;;;11.48;100.00;101767.41;12892381;22;20012;-88
2022/10/12 16:01:16;;;;;;;12.77;3.00;;;;;;;11.94;100.00;101897.38;12889988;22;20442;-88
2022/10/12 16:06:16;;;;;;;14.23;3.80;;;;;;;12.86;100.00;102064.44;12875220;22;20519;-87
2022/10/12 16:11:17;;;;;;;13.50;2.95;;;;;;;11.38;100.00;101838.84;12889945;22;20062;-87
2022/10/12 16:16:20;;;;;;;7.18;2.88;;;;;;;12.16;100.00;101982.38;12887842;22;20464;-88
2022/10/12 16:21:21;;;;;;;8.20;2.28;;;;;;;11.85;100.00;101948.44;12913753;22;20373;-88
2022/10/12 16:26:21;;;;;;;18.50;3.83;;;;;;;11.79;100.00;101985.25;12898095;22;20020;-86
2022/10/12 16:31:22;;;;;;;11.77;2.70;;;;;;;11.49;100.00;101962.13;12888085;22;20000;-87
2022/10/12 16:36:22;;;;;;;12.82;2.95;;;;;;;11.48;100.00;101978.91;12887087;22;20004;-87
2022/10/12 16:41:23;;;;;;;10.40;2.90;;;;;;;11.42;100.00;102008.25;12883476;22;20515;-87
2022/10/12 16:46:23;;;;;;;8.52;2.78;;;;;;;10.37;100.00;101901.81;12909872;22;20004;-87
2022/10/12 16:51:24;;;;;;;9.45;3.10;;;;;;;9.88;100.00;101826.50;12886788;22;20089;-88
2022/10/12 16:56:24;;;;;;;12.50;3.60;;;;;;;9.64;100.00;101848.31;12888771;22;20008;-89
2022/10/12 17:01:25;;;;;;;16.33;3.25;;;;;;;10.47;100.00;101981.97;12870889;22;20015;-87
2022/10/12 17:06:25;;;;;;;15.18;3.70;;;;;;;9.76;100.00;101891.59;12888838;22;20099;-85
2022/10/12 17:11:26;;;;;;;19.05;3.78;;;;;;;9.68;100.00;101896.28;12885302;22;20004;-87
2022/10/12 17:16:48;;;;;;;16.65;3.85;;;;;;;9.84;100.00;101938.91;12874713;22;20434;-87
2022/10/12 17:21:49;;;;;;;18.25;4.43;;;;;;;9.89;100.00;101963.81;12899534;22;20019;-86
2022/10/12 17:26:49;;;;;;;11.60;3.17;;;;;;;9.52;100.00;101898.75;12895581;22;20007;-88
2022/10/12 17:31:50;;;;;;;12.48;4.15;;;;;;;10.02;100.00;102000.56;12893875;22;20003;-87
2022/10/12 17:36:51;;;;;;;13.82;3.53;;;;;;;9.61;100.00;101938.63;12893730;22;20016;-86
2022/10/12 17:41:52;;;;;;;12.02;4.05;;;;;;;9.69;100.00;101935.63;12918979;22;20020;-86
2022/10/12 17:46:52;;;;;;;9.25;3.50;;;;;;;9.87;100.00;101954.13;12921146;22;20008;-85
2022/10/12 17:51:53;;;;;;;9.65;4.65;;;;;;;9.30;100.00;101877.09;12917227;22;20369;-87
2022/10/12 17:56:54;;;;;;;11.85;4.00;;;;;;;9.20;100.00;101854.75;12917889;22;20010;-86
2022/10/12 18:01:54;;;;;;;14.57;4.13;;;;;;;10.45;100.00;102068.63;12893380;22;20311;-86
2022/10/12 18:06:57;;;;;;;12.23;4.70;;;;;;;8.59;100.00;101760.91;12917270;22;20015;-86
2022/10/12 18:11:58;;;;;;;12.52;4.75;;;;;;;9.19;100.00;101875.91;12882051;22;20000;-86
2022/10/12 18:16:58;;;;;;;15.18;5.28;;;;;;;8.68;100.00;101814.50;12890921;22;20085;-88
2022/10/12 18:21:59;;;;;;;21.00;5.05;;;;;;;8.45;100.00;101770.25;12893921;22;20064;-86
2022/10/12 18:27:00;;;;;;;13.90;5.55;;;;;;;8.51;100.00;101806.97;12891514;22;20004;-85
2022/10/12 18:32:00;;;;;;;13.07;4.50;;;;;;;8.85;100.00;101846.94;12892301;22;20000;-86
2022/10/12 18:37:01;;;;;;;15.77;4.75;;;;;;;9.43;100.00;101962.22;12893709;22;20103;-85
2022/10/12 18:42:01;;;;;;;13.35;5.00;;;;;;;8.82;100.00;101885.81;12922787;22;20385;-85
2022/10/12 18:47:02;;;;;;;14.05;5.53;;;;;;;7.82;100.00;101702.34;12896656;22;20003;-85
2022/10/12 18:52:03;;;;;;;18.75;5.75;;;;;;;9.79;100.00;102040.47;12898348;22;20055;-86
2022/10/12 18:57:04;;;;;;;15.13;5.70;;;;;;;8.48;100.00;101828.31;12915853;22;20057;-86
2022/10/12 19:02:04;;;;;;;14.52;5.82;;;;;;;8.47;100.00;101809.31;12898977;22;20065;-87
2022/10/12 19:07:05;;;;;;;11.82;5.70;;;;;;;8.22;100.00;101807.25;12893268;22;20450;-86
2022/10/12 19:12:06;;;;;;;18.92;6.65;;;;;;;9.72;100.00;102072.69;12895419;22;20007;-85
2022/10/12 19:17:06;;;;;;;18.35;6.03;;;;;;;9.09;100.00;101953.31;12942082;22;20151;-85
2022/10/12 19:22:07;;;;;;;16.63;5.95;;;;;;;9.55;100.00;102030.25;12889124;22;20020;-84
2022/10/12 19:27:07;;;;;;;13.52;6.32;;;;;;;7.95;100.00;101740.66;12889490;22;20008;-84
2022/10/12 19:32:08;;;;;;;15.15;6.00;;;;;;;9.74;100.00;102023.81;12913519;22;20000;-85
2022/10/12 19:37:09;;;;;;;14.90;6.18;;;;;;;8.46;100.00;101810.38;12892803;22;22344;-84
2022/10/12 19:42:09;;;;;;;15.70;8.30;;;;;;;8.46;100.00;101810.38;12942307;22;20469;-84
2022/10/12 19:47:10;;;;;;;14.32;7.28;;;;;;;8.78;100.00;101877.16;12893677;22;20461;-85
2022/10/12 19:52:35;;;;;;;13.50;6.45;;;;;;;8.14;100.00;101782.78;12842353;22;20019;-85
2022/10/12 19:57:36;;;;;;;13.73;7.38;;;;;;;7.55;100.00;101693.34;12781088;22;20016;-85
2022/10/12 20:02:37;;;;;;;15.48;7.78;;;;;;;8.42;100.00;101859.34;12845406;22;20374;-85
2022/10/12 20:07:41;;;;;;;23.13;6.95;;;;;;;8.38;100.00;101862.72;12852849;22;20047;-84
2022/10/12 20:13:05;;;;;;;16.83;7.20;;;;;;;9.45;100.00;101993.09;12867548;22;20012;-85
2022/10/12 20:18:08;;;;;;;19.38;7.25;;;;;;;7.65;100.00;101748.56;12798105;22;20413;-86
2022/10/12 20:23:09;;;;;;;13.00;6.82;;;;;;;9.23;100.00;102046.66;12718578;22;20015;-85
2022/10/12 20:28:19;;;;;;;13.68;6.82;;;;;;;7.50;100.00;101754.25;12827017;22;20090;-86
2022/10/12 20:33:23;;;;;;;18.65;7.25;;;;;;;7.72;100.00;101848.06;12923202;22;20010;-85
2022/10/12 20:38:32;;;;;;;22.98;7.70;;;;;;;8.59;100.00;102002.44;12882435;22;20058;-85
2022/10/12 20:43:33;;;;;;;18.27;7.55;;;;;;;7.03;100.00;101762.47;12843278;22;20027;-85
2022/10/12 20:48:38;;;;;;;18.67;9.27;;;;;;;8.24;100.00;101975.22;12879979;22;20003;-85
2022/10/12 20:53:42;;;;;;;18.20;7.28;;;;;;;7.14;100.00;101861.50;12870646;22;20365;-85
2022/10/12 20:58:43;;;;;;;20.98;8.63;;;;;;;6.70;100.00;101802.59;12904040;22;20011;-85
2022/10/12 21:03:43;;;;;;;25.33;8.77;;;;;;;6.32;100.00;101743.78;12781446;22;20178;-84
2022/10/12 21:08:48;;;;;;;22.58;7.97;;;;;;;6.93;100.00;101876.19;12827121;22;20415;-85
2022/10/12 21:13:49;;;;;;;25.10;8.38;;;;;;;7.68;100.00;101962.75;12775963;22;20061;-86
2022/10/12 21:18:56;;;;;;;22.35;10.02;;;;;;;5.26;100.00;101618.38;12798313;22;20008;-86
2022/10/12 21:24:01;;;;;;;25.90;9.70;;;;;;;6.21;100.00;101780.75;12744825;22;20024;-85
2022/10/12 21:29:16;;;;;;;16.13;9.02;;;;;;;6.77;100.00;101828.13;12796828;22;20042;-85
2022/10/12 21:34:27;;;;;;;18.98;10.13;;;;;;;6.60;100.00;101846.81;12821682;22;20407;-85
2022/10/12 21:39:34;;;;;;;20.70;10.25;;;;;;;5.89;100.00;101708.47;12823394;22;20004;-85
2022/10/12 21:44:41;;;;;;;23.55;11.10;;;;;;;6.90;100.00;101888.38;12763314;22;20003;-84
2022/10/12 21:50:14;;;;;;;27.17;11.40;;;;;;;7.31;100.00;101934.00;12716447;22;20016;-85
2022/10/12 21:55:16;;;;;;;20.75;10.73;;;;;;;5.37;100.00;101656.03;12780885;22;20007;-84
2022/10/12 22:00:20;;;;;;;20.58;10.27;;;;;;;5.63;100.00;101706.44;12843307;22;20095;-85
2022/10/12 22:05:20;;;;;;;21.30;10.60;;;;;;;6.13;100.00;101794.59;12788608;22;20015;-85
2022/10/12 22:10:22;;;;;;;25.80;11.93;;;;;;;6.53;100.00;101863.19;12859196;22;20023;-85
2022/10/12 22:15:23;;;;;;;22.85;11.02;;;;;;;5.91;100.00;101757.44;12895949;22;20479;-84
2022/10/12 22:20:24;;;;;;;18.92;11.75;;;;;;;6.57;100.00;101883.59;12906722;22;20024;-84
2022/10/12 22:25:25;;;;;;;21.65;11.77;;;;;;;6.48;100.00;101827.38;12865284;22;20011;-84
2022/10/12 22:30:25;;;;;;;25.35;12.57;;;;;;;5.90;100.00;101701.09;12856645;22;20008;-85
2022/10/12 22:35:29;;;;;;;28.40;12.65;;;;;;;6.33;100.00;101755.59;12887925;22;20031;-84
2022/10/12 22:40:30;;;;;;;22.60;11.35;;;;;;;6.76;100.00;101820.94;12888967;22;20026;-84
2022/10/12 22:45:34;;;;;;;40.20;14.27;;;;;;;6.35;100.00;101693.31;12903519;22;20004;-84
2022/10/12 22:50:39;;;;;;;27.40;13.63;;;;;;;7.22;100.00;101809.28;12812265;22;20024;-84
2022/10/12 22:55:41;;;;;;;20.67;9.53;;;;;;;6.61;100.00;101707.03;12841496;22;20019;-86
2022/10/12 23:00:42;;;;;;;21.75;11.77;;;;;;;7.10;100.00;101813.69;12874749;22;20016;-84